sensor_id;sensor_type;location;lat;lon;timestamp;P1;durP1;ratioP1;P2;durP2;ratioP2
12118;SDS011;6123;48.864;9.200;2023-06-01T00:01:43;4.90;;;3.00;;
12118;SDS011;6123;48.864;9.200;2023-06-01T00:04:09;3.67;;;3.22;;
12118;SDS011;6123;48.864;9.200;2023-06-01T00:06:35;5.15;;;3.08;;
12118;SDS011;6123;48.864;9.200;2023-06-01T00:09:01;5.50;;;3.72;;
12118;SDS011;6123;48.864;9.200;2023-06-01T00:11:27;3.90;;;3.25;;
12118;SDS011;6123;48.864;9.200;2023-06-01T00:13:53;4.75;;;2.90;;
12118;SDS011;6123;48.864;9.200;2023-06-01T00:16:19;6.50;;;3.30;;
12118;SDS011;6123;48.864;9.200;2023-06-01T00:18:47;6.05;;;3.38;;
12118;SDS011;6123;48.864;9.200;2023-06-01T00:21:13;5.25;;;3.53;;
12118;SDS011;6123;48.864;9.200;2023-06-01T00:23:39;4.88;;;3.40;;
12118;SDS011;6123;48.864;9.200;2023-06-01T00:26:06;4.93;;;3.53;;
12118;SDS011;6123;48.864;9.200;2023-06-01T00:28:32;4.47;;;3.40;;
12118;SDS011;6123;48.864;9.200;2023-06-01T00:30:58;4.85;;;3.05;;
12118;SDS011;6123;48.864;9.200;2023-06-01T00:33:24;3.63;;;3.30;;
12118;SDS011;6123;48.864;9.200;2023-06-01T00:35:50;3.33;;;3.03;;
12118;SDS011;6123;48.864;9.200;2023-06-01T00:38:16;5.78;;;3.50;;
12118;SDS011;6123;48.864;9.200;2023-06-01T00:40:42;4.38;;;3.50;;
12118;SDS011;6123;48.864;9.200;2023-06-01T00:43:08;6.13;;;3.50;;
12118;SDS011;6123;48.864;9.200;2023-06-01T00:45:35;5.50;;;3.20;;
12118;SDS011;6123;48.864;9.200;2023-06-01T00:48:02;4.93;;;3.10;;
12118;SDS011;6123;48.864;9.200;2023-06-01T00:50:28;4.50;;;3.63;;
12118;SDS011;6123;48.864;9.200;2023-06-01T00:52:54;6.60;;;3.55;;
12118;SDS011;6123;48.864;9.200;2023-06-01T00:55:21;7.32;;;3.80;;
12118;SDS011;6123;48.864;9.200;2023-06-01T00:57:47;3.33;;;3.00;;
12118;SDS011;6123;48.864;9.200;2023-06-01T01:00:14;6.75;;;3.45;;
12118;SDS011;6123;48.864;9.200;2023-06-01T01:02:41;4.13;;;3.30;;
12118;SDS011;6123;48.864;9.200;2023-06-01T01:05:09;3.78;;;2.97;;
12118;SDS011;6123;48.864;9.200;2023-06-01T01:10:46;5.72;;;3.15;;
12118;SDS011;6123;48.864;9.200;2023-06-01T01:16:03;4.10;;;3.03;;
12118;SDS011;6123;48.864;9.200;2023-06-01T01:18:36;4.68;;;3.35;;
12118;SDS011;6123;48.864;9.200;2023-06-01T01:21:03;3.78;;;3.08;;
12118;SDS011;6123;48.864;9.200;2023-06-01T01:24:04;4.70;;;3.38;;
12118;SDS011;6123;48.864;9.200;2023-06-01T01:26:42;5.43;;;3.50;;
12118;SDS011;6123;48.864;9.200;2023-06-01T01:29:10;4.40;;;3.13;;
12118;SDS011;6123;48.864;9.200;2023-06-01T01:31:37;4.03;;;3.45;;
12118;SDS011;6123;48.864;9.200;2023-06-01T01:34:03;6.15;;;3.83;;
12118;SDS011;6123;48.864;9.200;2023-06-01T01:36:30;4.97;;;3.53;;
12118;SDS011;6123;48.864;9.200;2023-06-01T01:38:57;5.97;;;3.47;;
12118;SDS011;6123;48.864;9.200;2023-06-01T01:41:23;4.05;;;3.15;;
12118;SDS011;6123;48.864;9.200;2023-06-01T01:43:49;4.38;;;3.30;;
12118;SDS011;6123;48.864;9.200;2023-06-01T01:46:22;3.78;;;3.15;;
12118;SDS011;6123;48.864;9.200;2023-06-01T01:48:54;3.70;;;3.38;;
12118;SDS011;6123;48.864;9.200;2023-06-01T01:51:26;4.47;;;2.80;;
12118;SDS011;6123;48.864;9.200;2023-06-01T01:53:54;3.28;;;2.97;;
12118;SDS011;6123;48.864;9.200;2023-06-01T01:56:20;4.00;;;3.28;;
12118;SDS011;6123;48.864;9.200;2023-06-01T01:58:47;4.70;;;2.97;;
12118;SDS011;6123;48.864;9.200;2023-06-01T02:01:13;3.88;;;3.20;;
12118;SDS011;6123;48.864;9.200;2023-06-01T02:03:39;3.22;;;2.92;;
12118;SDS011;6123;48.864;9.200;2023-06-01T02:06:05;6.07;;;3.08;;
12118;SDS011;6123;48.864;9.200;2023-06-01T02:08:32;4.20;;;2.97;;
12118;SDS011;6123;48.864;9.200;2023-06-01T02:10:58;8.73;;;3.95;;
12118;SDS011;6123;48.864;9.200;2023-06-01T02:13:24;6.05;;;3.45;;
12118;SDS011;6123;48.864;9.200;2023-06-01T02:15:49;3.28;;;2.97;;
12118;SDS011;6123;48.864;9.200;2023-06-01T02:18:15;6.63;;;3.03;;
12118;SDS011;6123;48.864;9.200;2023-06-01T02:20:43;4.70;;;2.80;;
12118;SDS011;6123;48.864;9.200;2023-06-01T02:23:09;3.88;;;3.00;;
12118;SDS011;6123;48.864;9.200;2023-06-01T02:25:35;4.65;;;3.63;;
12118;SDS011;6123;48.864;9.200;2023-06-01T02:28:01;6.07;;;2.92;;
12118;SDS011;6123;48.864;9.200;2023-06-01T02:30:27;4.93;;;3.20;;
12118;SDS011;6123;48.864;9.200;2023-06-01T02:32:53;4.28;;;3.20;;
12118;SDS011;6123;48.864;9.200;2023-06-01T02:35:20;5.63;;;3.70;;
12118;SDS011;6123;48.864;9.200;2023-06-01T02:37:45;3.92;;;3.42;;
12118;SDS011;6123;48.864;9.200;2023-06-01T02:40:11;6.00;;;3.60;;
12118;SDS011;6123;48.864;9.200;2023-06-01T02:42:38;5.32;;;3.20;;
12118;SDS011;6123;48.864;9.200;2023-06-01T02:45:07;6.10;;;3.45;;
12118;SDS011;6123;48.864;9.200;2023-06-01T02:47:33;4.63;;;2.85;;
12118;SDS011;6123;48.864;9.200;2023-06-01T02:49:59;4.68;;;3.20;;
12118;SDS011;6123;48.864;9.200;2023-06-01T02:52:25;4.18;;;3.20;;
12118;SDS011;6123;48.864;9.200;2023-06-01T02:54:52;5.05;;;3.28;;
12118;SDS011;6123;48.864;9.200;2023-06-01T02:57:18;6.60;;;3.10;;
12118;SDS011;6123;48.864;9.200;2023-06-01T02:59:44;4.25;;;3.15;;
12118;SDS011;6123;48.864;9.200;2023-06-01T03:02:10;3.53;;;2.63;;
12118;SDS011;6123;48.864;9.200;2023-06-01T03:04:36;4.07;;;3.22;;
12118;SDS011;6123;48.864;9.200;2023-06-01T03:07:03;4.20;;;3.10;;
12118;SDS011;6123;48.864;9.200;2023-06-01T03:09:29;4.00;;;3.08;;
12118;SDS011;6123;48.864;9.200;2023-06-01T03:11:55;3.88;;;3.00;;
12118;SDS011;6123;48.864;9.200;2023-06-01T03:14:21;7.45;;;3.28;;
12118;SDS011;6123;48.864;9.200;2023-06-01T03:16:47;6.03;;;3.50;;
12118;SDS011;6123;48.864;9.200;2023-06-01T03:19:13;5.90;;;3.20;;
12118;SDS011;6123;48.864;9.200;2023-06-01T03:21:39;4.18;;;3.03;;
12118;SDS011;6123;48.864;9.200;2023-06-01T03:24:05;4.68;;;3.45;;
12118;SDS011;6123;48.864;9.200;2023-06-01T03:26:31;5.03;;;3.05;;
12118;SDS011;6123;48.864;9.200;2023-06-01T03:28:58;3.65;;;3.28;;
12118;SDS011;6123;48.864;9.200;2023-06-01T03:31:24;4.20;;;3.05;;
12118;SDS011;6123;48.864;9.200;2023-06-01T03:33:50;4.55;;;3.30;;
12118;SDS011;6123;48.864;9.200;2023-06-01T03:36:17;5.15;;;3.40;;
12118;SDS011;6123;48.864;9.200;2023-06-01T03:38:43;3.47;;;2.67;;
12118;SDS011;6123;48.864;9.200;2023-06-01T03:41:09;4.20;;;3.10;;
12118;SDS011;6123;48.864;9.200;2023-06-01T03:43:35;3.28;;;2.97;;
12118;SDS011;6123;48.864;9.200;2023-06-01T03:46:01;6.72;;;2.85;;
12118;SDS011;6123;48.864;9.200;2023-06-01T03:48:30;3.08;;;2.72;;
12118;SDS011;6123;48.864;9.200;2023-06-01T03:50:56;3.25;;;2.65;;
12118;SDS011;6123;48.864;9.200;2023-06-01T03:53:22;3.90;;;3.22;;
12118;SDS011;6123;48.864;9.200;2023-06-01T03:55:50;4.43;;;2.78;;
12118;SDS011;6123;48.864;9.200;2023-06-01T03:58:17;5.80;;;3.38;;
12118;SDS011;6123;48.864;9.200;2023-06-01T04:00:44;8.02;;;3.50;;
12118;SDS011;6123;48.864;9.200;2023-06-01T04:03:11;5.07;;;3.45;;
12118;SDS011;6123;48.864;9.200;2023-06-01T04:05:38;3.67;;;2.95;;
12118;SDS011;6123;48.864;9.200;2023-06-01T04:08:04;4.32;;;3.33;;
12118;SDS011;6123;48.864;9.200;2023-06-01T04:10:30;4.93;;;3.28;;
12118;SDS011;6123;48.864;9.200;2023-06-01T04:12:56;6.85;;;3.50;;
12118;SDS011;6123;48.864;9.200;2023-06-01T04:15:22;5.40;;;3.20;;
12118;SDS011;6123;48.864;9.200;2023-06-01T04:17:48;5.22;;;3.55;;
12118;SDS011;6123;48.864;9.200;2023-06-01T04:20:15;4.72;;;3.50;;
12118;SDS011;6123;48.864;9.200;2023-06-01T04:22:42;4.47;;;3.42;;
12118;SDS011;6123;48.864;9.200;2023-06-01T04:25:09;5.63;;;3.78;;
12118;SDS011;6123;48.864;9.200;2023-06-01T04:27:36;6.55;;;3.58;;
12118;SDS011;6123;48.864;9.200;2023-06-01T04:30:06;4.43;;;3.22;;
12118;SDS011;6123;48.864;9.200;2023-06-01T04:32:35;4.82;;;3.80;;
12118;SDS011;6123;48.864;9.200;2023-06-01T04:35:03;8.38;;;3.55;;
12118;SDS011;6123;48.864;9.200;2023-06-01T04:37:35;5.07;;;3.25;;
12118;SDS011;6123;48.864;9.200;2023-06-01T04:40:02;6.53;;;3.60;;
12118;SDS011;6123;48.864;9.200;2023-06-01T04:42:33;6.13;;;3.78;;
12118;SDS011;6123;48.864;9.200;2023-06-01T04:44:59;5.13;;;3.80;;
12118;SDS011;6123;48.864;9.200;2023-06-01T04:47:26;9.35;;;7.30;;
12118;SDS011;6123;48.864;9.200;2023-06-01T04:49:52;16.85;;;9.90;;
12118;SDS011;6123;48.864;9.200;2023-06-01T04:52:18;17.23;;;10.52;;
12118;SDS011;6123;48.864;9.200;2023-06-01T04:54:44;10.23;;;6.85;;
12118;SDS011;6123;48.864;9.200;2023-06-01T04:57:11;12.10;;;7.10;;
12118;SDS011;6123;48.864;9.200;2023-06-01T04:59:39;7.97;;;5.90;;
12118;SDS011;6123;48.864;9.200;2023-06-01T05:02:06;6.22;;;3.75;;
12118;SDS011;6123;48.864;9.200;2023-06-01T05:04:31;4.95;;;3.88;;
12118;SDS011;6123;48.864;9.200;2023-06-01T05:06:58;5.22;;;3.25;;
12118;SDS011;6123;48.864;9.200;2023-06-01T05:09:23;5.35;;;3.58;;
12118;SDS011;6123;48.864;9.200;2023-06-01T05:11:50;5.82;;;3.67;;
12118;SDS011;6123;48.864;9.200;2023-06-01T05:14:16;3.47;;;3.17;;
12118;SDS011;6123;48.864;9.200;2023-06-01T05:16:42;7.57;;;3.60;;
12118;SDS011;6123;48.864;9.200;2023-06-01T05:19:08;4.25;;;3.13;;
12118;SDS011;6123;48.864;9.200;2023-06-01T05:21:34;5.80;;;3.63;;
12118;SDS011;6123;48.864;9.200;2023-06-01T05:24:00;8.98;;;3.88;;
12118;SDS011;6123;48.864;9.200;2023-06-01T05:26:26;4.18;;;3.55;;
12118;SDS011;6123;48.864;9.200;2023-06-01T05:28:52;8.20;;;4.07;;
12118;SDS011;6123;48.864;9.200;2023-06-01T05:31:18;5.30;;;3.80;;
12118;SDS011;6123;48.864;9.200;2023-06-01T05:33:45;4.35;;;3.75;;
12118;SDS011;6123;48.864;9.200;2023-06-01T05:36:11;10.38;;;4.10;;
12118;SDS011;6123;48.864;9.200;2023-06-01T05:38:37;6.20;;;3.40;;
12118;SDS011;6123;48.864;9.200;2023-06-01T05:41:03;5.90;;;3.67;;
12118;SDS011;6123;48.864;9.200;2023-06-01T05:43:30;6.22;;;3.78;;
12118;SDS011;6123;48.864;9.200;2023-06-01T05:45:55;5.97;;;3.28;;
12118;SDS011;6123;48.864;9.200;2023-06-01T05:48:21;5.38;;;3.38;;
12118;SDS011;6123;48.864;9.200;2023-06-01T05:50:47;5.18;;;3.40;;
12118;SDS011;6123;48.864;9.200;2023-06-01T05:53:13;9.02;;;4.10;;
12118;SDS011;6123;48.864;9.200;2023-06-01T05:55:39;8.65;;;3.72;;
12118;SDS011;6123;48.864;9.200;2023-06-01T05:58:05;7.00;;;3.35;;
12118;SDS011;6123;48.864;9.200;2023-06-01T06:00:32;5.18;;;3.25;;
12118;SDS011;6123;48.864;9.200;2023-06-01T06:03:00;6.32;;;3.15;;
12118;SDS011;6123;48.864;9.200;2023-06-01T06:05:26;6.80;;;3.30;;
12118;SDS011;6123;48.864;9.200;2023-06-01T06:07:52;4.05;;;3.25;;
12118;SDS011;6123;48.864;9.200;2023-06-01T06:10:18;5.85;;;3.30;;
12118;SDS011;6123;48.864;9.200;2023-06-01T06:12:44;4.13;;;2.90;;
12118;SDS011;6123;48.864;9.200;2023-06-01T06:15:10;4.75;;;3.13;;
12118;SDS011;6123;48.864;9.200;2023-06-01T06:17:36;7.25;;;3.50;;
12118;SDS011;6123;48.864;9.200;2023-06-01T06:20:02;4.78;;;3.08;;
12118;SDS011;6123;48.864;9.200;2023-06-01T06:22:31;4.03;;;3.20;;
12118;SDS011;6123;48.864;9.200;2023-06-01T06:24:57;6.85;;;3.00;;
12118;SDS011;6123;48.864;9.200;2023-06-01T06:27:23;3.58;;;2.65;;
12118;SDS011;6123;48.864;9.200;2023-06-01T06:29:49;3.90;;;2.95;;
12118;SDS011;6123;48.864;9.200;2023-06-01T06:32:15;5.15;;;3.05;;
12118;SDS011;6123;48.864;9.200;2023-06-01T06:34:41;3.42;;;3.10;;
12118;SDS011;6123;48.864;9.200;2023-06-01T06:37:07;5.63;;;3.17;;
12118;SDS011;6123;48.864;9.200;2023-06-01T06:39:36;4.63;;;3.00;;
12118;SDS011;6123;48.864;9.200;2023-06-01T06:42:02;3.88;;;3.00;;
12118;SDS011;6123;48.864;9.200;2023-06-01T06:44:28;4.43;;;2.97;;
12118;SDS011;6123;48.864;9.200;2023-06-01T06:46:55;3.35;;;2.78;;
12118;SDS011;6123;48.864;9.200;2023-06-01T06:49:21;4.07;;;3.10;;
12118;SDS011;6123;48.864;9.200;2023-06-01T06:51:47;3.58;;;3.00;;
12118;SDS011;6123;48.864;9.200;2023-06-01T06:54:12;4.82;;;2.97;;
12118;SDS011;6123;48.864;9.200;2023-06-01T06:56:39;3.33;;;2.75;;
12118;SDS011;6123;48.864;9.200;2023-06-01T06:59:05;5.85;;;3.33;;
12118;SDS011;6123;48.864;9.200;2023-06-01T07:01:31;3.78;;;2.83;;
12118;SDS011;6123;48.864;9.200;2023-06-01T07:04:00;4.75;;;2.95;;
12118;SDS011;6123;48.864;9.200;2023-06-01T07:06:26;4.38;;;2.97;;
12118;SDS011;6123;48.864;9.200;2023-06-01T07:08:51;4.47;;;3.30;;
12118;SDS011;6123;48.864;9.200;2023-06-01T07:11:18;3.83;;;3.17;;
12118;SDS011;6123;48.864;9.200;2023-06-01T07:13:44;5.03;;;3.50;;
12118;SDS011;6123;48.864;9.200;2023-06-01T07:16:10;4.68;;;3.25;;
12118;SDS011;6123;48.864;9.200;2023-06-01T07:18:36;3.47;;;3.00;;
12118;SDS011;6123;48.864;9.200;2023-06-01T07:21:02;4.32;;;3.00;;
12118;SDS011;6123;48.864;9.200;2023-06-01T07:23:28;4.13;;;3.00;;
12118;SDS011;6123;48.864;9.200;2023-06-01T07:25:55;4.40;;;3.10;;
12118;SDS011;6123;48.864;9.200;2023-06-01T07:28:21;4.38;;;3.17;;
12118;SDS011;6123;48.864;9.200;2023-06-01T07:30:50;5.53;;;3.70;;
12118;SDS011;6123;48.864;9.200;2023-06-01T07:33:16;4.70;;;3.20;;
12118;SDS011;6123;48.864;9.200;2023-06-01T07:35:42;6.57;;;3.65;;
12118;SDS011;6123;48.864;9.200;2023-06-01T07:38:08;4.47;;;3.63;;
12118;SDS011;6123;48.864;9.200;2023-06-01T07:40:35;6.28;;;3.70;;
12118;SDS011;6123;48.864;9.200;2023-06-01T07:43:01;3.97;;;3.50;;
12118;SDS011;6123;48.864;9.200;2023-06-01T07:45:27;4.18;;;3.30;;
12118;SDS011;6123;48.864;9.200;2023-06-01T07:47:53;6.00;;;3.67;;
12118;SDS011;6123;48.864;9.200;2023-06-01T07:50:19;4.63;;;3.33;;
12118;SDS011;6123;48.864;9.200;2023-06-01T07:52:45;3.80;;;3.13;;
12118;SDS011;6123;48.864;9.200;2023-06-01T07:55:11;4.88;;;3.38;;
12118;SDS011;6123;48.864;9.200;2023-06-01T07:57:37;7.28;;;3.00;;
12118;SDS011;6123;48.864;9.200;2023-06-01T08:00:03;4.65;;;3.28;;
12118;SDS011;6123;48.864;9.200;2023-06-01T08:02:36;8.32;;;3.17;;
12118;SDS011;6123;48.864;9.200;2023-06-01T08:05:02;3.45;;;3.15;;
12118;SDS011;6123;48.864;9.200;2023-06-01T08:07:28;3.88;;;3.47;;
12118;SDS011;6123;48.864;9.200;2023-06-01T08:09:54;4.70;;;3.50;;
12118;SDS011;6123;48.864;9.200;2023-06-01T08:12:20;5.88;;;3.55;;
12118;SDS011;6123;48.864;9.200;2023-06-01T08:14:47;5.20;;;3.70;;
12118;SDS011;6123;48.864;9.200;2023-06-01T08:17:12;4.22;;;3.45;;
12118;SDS011;6123;48.864;9.200;2023-06-01T08:19:39;5.15;;;4.13;;
12118;SDS011;6123;48.864;9.200;2023-06-01T08:22:10;4.05;;;3.72;;
12118;SDS011;6123;48.864;9.200;2023-06-01T08:24:37;4.60;;;3.72;;
12118;SDS011;6123;48.864;9.200;2023-06-01T08:27:15;6.97;;;3.90;;
12118;SDS011;6123;48.864;9.200;2023-06-01T08:29:41;4.18;;;3.75;;
12118;SDS011;6123;48.864;9.200;2023-06-01T08:32:07;5.13;;;3.67;;
12118;SDS011;6123;48.864;9.200;2023-06-01T08:34:33;7.22;;;4.10;;
12118;SDS011;6123;48.864;9.200;2023-06-01T08:36:59;7.10;;;4.43;;
12118;SDS011;6123;48.864;9.200;2023-06-01T08:39:25;4.97;;;3.58;;
12118;SDS011;6123;48.864;9.200;2023-06-01T08:44:31;4.43;;;3.60;;
12118;SDS011;6123;48.864;9.200;2023-06-01T08:46:59;5.50;;;4.35;;
12118;SDS011;6123;48.864;9.200;2023-06-01T08:49:25;4.78;;;3.72;;
12118;SDS011;6123;48.864;9.200;2023-06-01T08:51:52;6.72;;;4.50;;
12118;SDS011;6123;48.864;9.200;2023-06-01T08:54:21;6.07;;;3.90;;
12118;SDS011;6123;48.864;9.200;2023-06-01T08:56:47;6.00;;;4.10;;
12118;SDS011;6123;48.864;9.200;2023-06-01T08:59:13;5.38;;;3.90;;
12118;SDS011;6123;48.864;9.200;2023-06-01T09:01:39;5.10;;;4.18;;
12118;SDS011;6123;48.864;9.200;2023-06-01T09:04:05;5.63;;;4.18;;
12118;SDS011;6123;48.864;9.200;2023-06-01T09:06:32;8.07;;;4.10;;
12118;SDS011;6123;48.864;9.200;2023-06-01T09:08:58;5.53;;;4.50;;
12118;SDS011;6123;48.864;9.200;2023-06-01T09:11:25;5.05;;;4.43;;
12118;SDS011;6123;48.864;9.200;2023-06-01T09:13:52;4.78;;;4.07;;
12118;SDS011;6123;48.864;9.200;2023-06-01T09:16:18;4.70;;;4.30;;
12118;SDS011;6123;48.864;9.200;2023-06-01T09:18:50;4.90;;;4.07;;
12118;SDS011;6123;48.864;9.200;2023-06-01T09:21:16;7.30;;;4.50;;
12118;SDS011;6123;48.864;9.200;2023-06-01T09:23:42;6.78;;;4.45;;
12118;SDS011;6123;48.864;9.200;2023-06-01T09:26:09;4.43;;;4.10;;
12118;SDS011;6123;48.864;9.200;2023-06-01T09:31:36;5.72;;;3.92;;
12118;SDS011;6123;48.864;9.200;2023-06-01T09:34:02;4.82;;;4.32;;
12118;SDS011;6123;48.864;9.200;2023-06-01T09:36:29;6.80;;;4.70;;
12118;SDS011;6123;48.864;9.200;2023-06-01T09:39:02;4.50;;;4.03;;
12118;SDS011;6123;48.864;9.200;2023-06-01T09:41:43;5.57;;;4.68;;
12118;SDS011;6123;48.864;9.200;2023-06-01T09:44:09;5.78;;;4.65;;
12118;SDS011;6123;48.864;9.200;2023-06-01T09:46:45;7.10;;;5.32;;
12118;SDS011;6123;48.864;9.200;2023-06-01T09:49:12;5.72;;;5.03;;
12118;SDS011;6123;48.864;9.200;2023-06-01T09:51:44;4.68;;;4.28;;
12118;SDS011;6123;48.864;9.200;2023-06-01T09:54:12;5.43;;;4.53;;
12118;SDS011;6123;48.864;9.200;2023-06-01T09:56:46;5.50;;;4.75;;
12118;SDS011;6123;48.864;9.200;2023-06-01T09:59:12;5.53;;;4.43;;
12118;SDS011;6123;48.864;9.200;2023-06-01T10:01:39;6.50;;;4.85;;
12118;SDS011;6123;48.864;9.200;2023-06-01T10:04:06;5.93;;;4.60;;
12118;SDS011;6123;48.864;9.200;2023-06-01T10:06:32;7.78;;;4.53;;
12118;SDS011;6123;48.864;9.200;2023-06-01T10:08:59;5.40;;;4.40;;
12118;SDS011;6123;48.864;9.200;2023-06-01T10:11:27;5.45;;;4.82;;
12118;SDS011;6123;48.864;9.200;2023-06-01T10:13:54;5.38;;;4.50;;
12118;SDS011;6123;48.864;9.200;2023-06-01T10:16:21;6.45;;;4.30;;
12118;SDS011;6123;48.864;9.200;2023-06-01T10:18:47;5.90;;;4.57;;
12118;SDS011;6123;48.864;9.200;2023-06-01T10:21:15;6.70;;;4.72;;
12118;SDS011;6123;48.864;9.200;2023-06-01T10:23:42;5.60;;;4.90;;
12118;SDS011;6123;48.864;9.200;2023-06-01T10:26:12;5.82;;;5.22;;
12118;SDS011;6123;48.864;9.200;2023-06-01T10:28:43;4.50;;;4.10;;
12118;SDS011;6123;48.864;9.200;2023-06-01T10:33:55;5.60;;;4.30;;
12118;SDS011;6123;48.864;9.200;2023-06-01T10:36:22;6.55;;;4.40;;
12118;SDS011;6123;48.864;9.200;2023-06-01T10:38:48;7.70;;;4.28;;
12118;SDS011;6123;48.864;9.200;2023-06-01T10:41:30;5.93;;;4.20;;
12118;SDS011;6123;48.864;9.200;2023-06-01T10:43:57;5.70;;;4.80;;
12118;SDS011;6123;48.864;9.200;2023-06-01T10:46:36;7.88;;;4.90;;
12118;SDS011;6123;48.864;9.200;2023-06-01T10:49:02;4.78;;;4.15;;
12118;SDS011;6123;48.864;9.200;2023-06-01T10:51:28;5.68;;;4.68;;
12118;SDS011;6123;48.864;9.200;2023-06-01T10:53:58;5.50;;;4.72;;
12118;SDS011;6123;48.864;9.200;2023-06-01T10:56:41;5.00;;;4.55;;
12118;SDS011;6123;48.864;9.200;2023-06-01T11:01:34;5.35;;;4.40;;
12118;SDS011;6123;48.864;9.200;2023-06-01T11:04:00;5.43;;;4.40;;
12118;SDS011;6123;48.864;9.200;2023-06-01T11:06:30;4.70;;;4.30;;
12118;SDS011;6123;48.864;9.200;2023-06-01T11:08:57;4.43;;;4.03;;
12118;SDS011;6123;48.864;9.200;2023-06-01T11:11:45;7.60;;;5.13;;
12118;SDS011;6123;48.864;9.200;2023-06-01T11:14:11;5.20;;;4.60;;
12118;SDS011;6123;48.864;9.200;2023-06-01T11:16:37;5.13;;;4.63;;
12118;SDS011;6123;48.864;9.200;2023-06-01T11:19:06;5.07;;;4.55;;
12118;SDS011;6123;48.864;9.200;2023-06-01T11:24:06;5.47;;;4.57;;
12118;SDS011;6123;48.864;9.200;2023-06-01T11:26:34;5.25;;;4.20;;
12118;SDS011;6123;48.864;9.200;2023-06-01T11:29:05;5.32;;;4.43;;
12118;SDS011;6123;48.864;9.200;2023-06-01T11:31:39;6.90;;;4.35;;
12118;SDS011;6123;48.864;9.200;2023-06-01T11:34:05;5.05;;;4.57;;
12118;SDS011;6123;48.864;9.200;2023-06-01T11:36:35;5.47;;;4.40;;
12118;SDS011;6123;48.864;9.200;2023-06-01T11:39:01;5.07;;;4.47;;
12118;SDS011;6123;48.864;9.200;2023-06-01T11:41:28;4.28;;;3.88;;
12118;SDS011;6123;48.864;9.200;2023-06-01T11:43:54;4.70;;;4.30;;
12118;SDS011;6123;48.864;9.200;2023-06-01T11:46:20;5.50;;;4.75;;
12118;SDS011;6123;48.864;9.200;2023-06-01T11:48:59;5.38;;;4.25;;
12118;SDS011;6123;48.864;9.200;2023-06-01T11:51:33;5.20;;;4.60;;
12118;SDS011;6123;48.864;9.200;2023-06-01T11:54:01;6.35;;;4.47;;
12118;SDS011;6123;48.864;9.200;2023-06-01T11:56:28;8.27;;;4.60;;
12118;SDS011;6123;48.864;9.200;2023-06-01T11:58:58;6.88;;;4.18;;
12118;SDS011;6123;48.864;9.200;2023-06-01T12:01:24;5.47;;;4.05;;
12118;SDS011;6123;48.864;9.200;2023-06-01T12:03:51;5.63;;;4.13;;
12118;SDS011;6123;48.864;9.200;2023-06-01T12:06:20;5.05;;;4.55;;
12118;SDS011;6123;48.864;9.200;2023-06-01T12:08:47;5.10;;;4.15;;
12118;SDS011;6123;48.864;9.200;2023-06-01T12:11:15;6.40;;;4.22;;
12118;SDS011;6123;48.864;9.200;2023-06-01T12:13:43;5.40;;;4.38;;
12118;SDS011;6123;48.864;9.200;2023-06-01T12:16:09;6.10;;;4.63;;
12118;SDS011;6123;48.864;9.200;2023-06-01T12:18:35;5.15;;;4.40;;
12118;SDS011;6123;48.864;9.200;2023-06-01T12:21:07;4.82;;;4.35;;
12118;SDS011;6123;48.864;9.200;2023-06-01T12:23:34;5.10;;;4.60;;
12118;SDS011;6123;48.864;9.200;2023-06-01T12:26:00;6.63;;;4.45;;
12118;SDS011;6123;48.864;9.200;2023-06-01T12:28:26;5.93;;;4.10;;
12118;SDS011;6123;48.864;9.200;2023-06-01T12:31:14;4.38;;;4.00;;
12118;SDS011;6123;48.864;9.200;2023-06-01T12:33:40;5.93;;;4.82;;
12118;SDS011;6123;48.864;9.200;2023-06-01T12:36:07;6.25;;;4.45;;
12118;SDS011;6123;48.864;9.200;2023-06-01T12:38:37;4.68;;;4.28;;
12118;SDS011;6123;48.864;9.200;2023-06-01T12:43:33;4.38;;;3.97;;
12118;SDS011;6123;48.864;9.200;2023-06-01T12:45:59;4.78;;;3.97;;
12118;SDS011;6123;48.864;9.200;2023-06-01T12:48:29;5.90;;;4.07;;
12118;SDS011;6123;48.864;9.200;2023-06-01T12:50:57;6.80;;;4.70;;
12118;SDS011;6123;48.864;9.200;2023-06-01T12:53:22;5.45;;;3.97;;
12118;SDS011;6123;48.864;9.200;2023-06-01T12:55:48;4.80;;;4.18;;
12118;SDS011;6123;48.864;9.200;2023-06-01T12:58:14;4.22;;;3.75;;
12118;SDS011;6123;48.864;9.200;2023-06-01T13:00:40;6.07;;;3.92;;
12118;SDS011;6123;48.864;9.200;2023-06-01T13:03:06;5.15;;;4.47;;
12118;SDS011;6123;48.864;9.200;2023-06-01T13:05:32;4.20;;;3.80;;
12118;SDS011;6123;48.864;9.200;2023-06-01T13:07:58;4.45;;;4.00;;
12118;SDS011;6123;48.864;9.200;2023-06-01T13:10:27;4.75;;;4.13;;
12118;SDS011;6123;48.864;9.200;2023-06-01T13:12:53;4.82;;;4.10;;
12118;SDS011;6123;48.864;9.200;2023-06-01T13:15:20;6.40;;;4.03;;
12118;SDS011;6123;48.864;9.200;2023-06-01T13:17:46;4.47;;;3.53;;
12118;SDS011;6123;48.864;9.200;2023-06-01T13:20:13;7.15;;;4.00;;
12118;SDS011;6123;48.864;9.200;2023-06-01T13:22:41;4.10;;;3.70;;
12118;SDS011;6123;48.864;9.200;2023-06-01T13:25:07;5.03;;;4.00;;
12118;SDS011;6123;48.864;9.200;2023-06-01T13:27:33;3.60;;;3.30;;
12118;SDS011;6123;48.864;9.200;2023-06-01T13:29:59;3.67;;;3.05;;
12118;SDS011;6123;48.864;9.200;2023-06-01T13:32:26;6.18;;;3.63;;
12118;SDS011;6123;48.864;9.200;2023-06-01T13:34:52;5.50;;;3.47;;
12118;SDS011;6123;48.864;9.200;2023-06-01T13:37:18;3.88;;;3.30;;
12118;SDS011;6123;48.864;9.200;2023-06-01T13:39:44;4.32;;;3.50;;
12118;SDS011;6123;48.864;9.200;2023-06-01T13:42:10;5.60;;;3.30;;
12118;SDS011;6123;48.864;9.200;2023-06-01T13:44:36;3.47;;;3.17;;
12118;SDS011;6123;48.864;9.200;2023-06-01T13:47:02;3.58;;;3.28;;
12118;SDS011;6123;48.864;9.200;2023-06-01T13:49:28;4.55;;;3.40;;
12118;SDS011;6123;48.864;9.200;2023-06-01T13:51:54;3.75;;;2.90;;
12118;SDS011;6123;48.864;9.200;2023-06-01T13:54:20;4.55;;;3.20;;
12118;SDS011;6123;48.864;9.200;2023-06-01T13:56:47;7.70;;;3.53;;
12118;SDS011;6123;48.864;9.200;2023-06-01T13:59:13;3.47;;;3.17;;
12118;SDS011;6123;48.864;9.200;2023-06-01T14:01:39;3.40;;;3.10;;
12118;SDS011;6123;48.864;9.200;2023-06-01T14:04:05;4.78;;;3.03;;
12118;SDS011;6123;48.864;9.200;2023-06-01T14:06:31;4.00;;;3.10;;
12118;SDS011;6123;48.864;9.200;2023-06-01T14:08:59;5.70;;;3.38;;
12118;SDS011;6123;48.864;9.200;2023-06-01T14:11:25;4.50;;;3.05;;
12118;SDS011;6123;48.864;9.200;2023-06-01T14:13:52;5.75;;;3.60;;
12118;SDS011;6123;48.864;9.200;2023-06-01T14:16:18;3.60;;;3.30;;
12118;SDS011;6123;48.864;9.200;2023-06-01T14:18:44;4.60;;;3.38;;
12118;SDS011;6123;48.864;9.200;2023-06-01T14:21:10;5.95;;;3.72;;
12118;SDS011;6123;48.864;9.200;2023-06-01T14:23:35;5.45;;;3.15;;
12118;SDS011;6123;48.864;9.200;2023-06-01T14:26:02;5.28;;;3.42;;
12118;SDS011;6123;48.864;9.200;2023-06-01T14:28:28;3.58;;;2.97;;
12118;SDS011;6123;48.864;9.200;2023-06-01T14:30:54;3.20;;;2.90;;
12118;SDS011;6123;48.864;9.200;2023-06-01T14:33:20;3.63;;;3.25;;
12118;SDS011;6123;48.864;9.200;2023-06-01T14:35:46;4.07;;;2.65;;
12118;SDS011;6123;48.864;9.200;2023-06-01T14:38:12;6.90;;;3.10;;
12118;SDS011;6123;48.864;9.200;2023-06-01T14:40:38;3.55;;;2.97;;
12118;SDS011;6123;48.864;9.200;2023-06-01T14:43:04;3.20;;;2.90;;
12118;SDS011;6123;48.864;9.200;2023-06-01T14:45:30;4.75;;;3.10;;
12118;SDS011;6123;48.864;9.200;2023-06-01T14:47:56;5.43;;;3.40;;
12118;SDS011;6123;48.864;9.200;2023-06-01T14:50:22;7.30;;;3.88;;
12118;SDS011;6123;48.864;9.200;2023-06-01T14:52:48;3.13;;;2.83;;
12118;SDS011;6123;48.864;9.200;2023-06-01T14:55:14;3.17;;;2.88;;
12118;SDS011;6123;48.864;9.200;2023-06-01T14:57:41;4.63;;;3.13;;
12118;SDS011;6123;48.864;9.200;2023-06-01T15:00:08;4.00;;;2.80;;
12118;SDS011;6123;48.864;9.200;2023-06-01T15:02:35;5.03;;;3.17;;
12118;SDS011;6123;48.864;9.200;2023-06-01T15:05:01;3.78;;;2.80;;
12118;SDS011;6123;48.864;9.200;2023-06-01T15:07:27;4.30;;;2.70;;
12118;SDS011;6123;48.864;9.200;2023-06-01T15:09:53;5.07;;;3.03;;
12118;SDS011;6123;48.864;9.200;2023-06-01T15:12:19;5.90;;;2.45;;
12118;SDS011;6123;48.864;9.200;2023-06-01T15:14:45;4.20;;;2.60;;
12118;SDS011;6123;48.864;9.200;2023-06-01T15:17:13;3.55;;;2.60;;
12118;SDS011;6123;48.864;9.200;2023-06-01T15:19:39;4.57;;;2.50;;
12118;SDS011;6123;48.864;9.200;2023-06-01T15:22:05;4.85;;;2.72;;